TimeEST,TemperatureF,Dew PointF,Humidity,Sea Level PressureIn,VisibilityMPH,Wind Direction,Wind SpeedMPH,Gust SpeedMPH,PrecipitationIn,Events,Conditions,WindDirDegrees,DateUTC
12:53 AM,75.9,66.0,71,30.18,10.0,ESE,10.4,-,N/A,,Scattered Clouds,120,2013-12-07 05:53:00
1:53 AM,75.9,64.9,69,30.17,10.0,SE,9.2,-,N/A,,Scattered Clouds,130,2013-12-07 06:53:00
2:53 AM,75.0,66.0,73,30.17,10.0,ESE,4.6,-,N/A,,Scattered Clouds,120,2013-12-07 07:53:00
3:53 AM,73.9,66.9,79,30.17,10.0,ESE,4.6,-,N/A,,Partly Cloudy,120,2013-12-07 08:53:00
4:53 AM,72.0,66.9,84,30.17,10.0,Calm,Calm,-,N/A,,Scattered Clouds,0,2013-12-07 09:53:00
5:53 AM,69.1,66.0,90,30.17,10.0,NNW,3.5,-,N/A,,Scattered Clouds,340,2013-12-07 10:53:00
6:18 AM,69.8,66.2,88,30.18,10.0,NNW,4.6,-,N/A,,Mostly Cloudy,330,2013-12-07 11:18:00
6:36 AM,69.8,66.2,88,30.18,10.0,NNW,3.5,-,N/A,,Mostly Cloudy,340,2013-12-07 11:36:00
6:53 AM,70.0,66.9,90,30.19,10.0,Calm,Calm,-,N/A,,Mostly Cloudy,0,2013-12-07 11:53:00
7:53 AM,77.0,68.0,74,30.21,10.0,SE,9.2,-,N/A,,Overcast,130,2013-12-07 12:53:00
8:53 AM,79.0,68.0,69,30.22,10.0,SE,10.4,-,N/A,,Scattered Clouds,130,2013-12-07 13:53:00
9:53 AM,79.0,69.1,72,30.23,10.0,ESE,8.1,-,N/A,,Scattered Clouds,120,2013-12-07 14:53:00
10:53 AM,80.1,68.0,67,30.22,10.0,SE,9.2,-,N/A,,Scattered Clouds,130,2013-12-07 15:53:00
11:53 AM,80.1,69.1,69,30.21,10.0,ESE,11.5,-,N/A,,Scattered Clouds,120,2013-12-07 16:53:00
12:53 PM,81.0,69.1,67,30.18,10.0,ESE,9.2,-,N/A,,Scattered Clouds,120,2013-12-07 17:53:00
1:53 PM,80.1,68.0,67,30.16,10.0,East,11.5,-,N/A,,Scattered Clouds,100,2013-12-07 18:53:00
2:53 PM,80.1,66.9,64,30.15,10.0,ESE,8.1,-,N/A,,Clear,120,2013-12-07 19:53:00
3:53 PM,80.1,66.0,62,30.15,10.0,ESE,6.9,-,N/A,,Clear,110,2013-12-07 20:53:00
4:53 PM,79.0,68.0,69,30.16,10.0,East,8.1,-,N/A,,Scattered Clouds,100,2013-12-07 21:53:00
5:31 PM,78.8,68.0,69,30.16,10.0,East,9.2,-,N/A,,Mostly Cloudy,100,2013-12-07 22:31:00
5:44 PM,78.8,66.2,65,30.16,10.0,East,8.1,-,N/A,,Scattered Clouds,90,2013-12-07 22:44:00
5:53 PM,77.0,66.9,71,30.16,10.0,East,6.9,-,N/A,,Scattered Clouds,80,2013-12-07 22:53:00
6:53 PM,77.0,66.9,71,30.17,10.0,East,6.9,-,N/A,,Clear,80,2013-12-07 23:53:00
7:53 PM,77.0,66.9,71,30.18,10.0,ENE,6.9,-,N/A,,Partly Cloudy,70,2013-12-08 00:53:00
8:53 PM,77.0,66.9,71,30.19,10.0,East,9.2,-,N/A,,Scattered Clouds,80,2013-12-08 01:53:00
9:53 PM,78.1,66.9,68,30.19,10.0,East,10.4,-,N/A,,Mostly Cloudy,80,2013-12-08 02:53:00
10:38 PM,73.4,69.8,88,30.20,2.5,East,11.5,21.9,0.05,Rain,Rain,100,2013-12-08 03:38:00
10:46 PM,73.4,68.0,83,30.19,6.0,SE,8.1,-,0.06,Rain,Light Rain,130,2013-12-08 03:46:00
10:53 PM,73.0,68.0,84,30.20,8.0,East,10.4,16.1,0.06,Rain,Light Rain,90,2013-12-08 03:53:00
11:53 PM,75.9,69.1,79,30.19,10.0,East,18.4,26.5,0.01,,Overcast,100,2013-12-08 04:53:00